Sachse, Texas
Current Conditions -  °F | °C
As of 10:15 AM on Wednesday 28 Jan 2015 (Local Time) from KF46 Reporting Station
Clear Clear  
Wind Chill: 64°   Ceiling: Unl
Heat Index: 64°   Visibility: 10mi
Dew Point: 44°   Wind: 14mph
Humidity: 49%   Direction: 190°S
Pressure: 30.13"   Gusts: 22mph
Location:  32.9674°N, 96.5785°W
Report Text: KF46 281615Z AUTO 19012G19KT 10SM CLR 18/07 A3013 RMK AO2 T01750067
Loading
Personal Weather Stations






























Interactive Weather Map New forecast layout! Learn more

10-Day Weather Forecast

Advertisements
Track Severe Weather on mobile